createdAt,value
2017-04-20T00:00:06.203Z,0
2017-04-20T00:01:16.321Z,0
2017-04-20T00:02:26.193Z,0
2017-04-20T00:03:36.220Z,0
2017-04-20T00:04:45.979Z,0
2017-04-20T00:05:55.757Z,0
2017-04-20T00:07:05.892Z,0
2017-04-20T00:08:15.947Z,0
2017-04-20T00:09:26.376Z,0
2017-04-20T00:10:36.112Z,0
2017-04-20T00:11:46.219Z,0
2017-04-20T00:12:55.999Z,0
2017-04-20T00:14:06.090Z,0
2017-04-20T00:15:16.454Z,0
2017-04-20T00:16:26.188Z,0
2017-04-20T00:17:35.913Z,0
2017-04-20T00:18:45.701Z,0
2017-04-20T00:19:55.766Z,0
2017-04-20T00:21:05.906Z,0
2017-04-20T00:22:15.652Z,0
2017-04-20T00:23:25.716Z,0
2017-04-20T00:24:35.832Z,0
2017-04-20T00:25:45.910Z,0
2017-04-20T00:26:56.049Z,0
2017-04-20T00:28:05.812Z,0
2017-04-20T00:29:15.411Z,0
2017-04-20T00:30:25.158Z,0
2017-04-20T00:31:35.323Z,0
2017-04-20T00:32:45.683Z,0
2017-04-20T00:33:55.747Z,0
2017-04-20T00:35:05.142Z,0
2017-04-20T00:36:14.922Z,0
2017-04-20T00:37:24.726Z,0
2017-04-20T00:38:34.772Z,0
2017-04-20T00:39:44.837Z,0
2017-04-20T00:40:54.960Z,0
2017-04-20T00:42:05.027Z,0
2017-04-20T00:43:15.211Z,0
2017-04-20T00:44:25.735Z,0
2017-04-20T00:45:35.517Z,0
2017-04-20T00:46:45.254Z,0
2017-04-20T00:47:55.008Z,0
2017-04-20T00:49:05.067Z,0
2017-04-20T00:50:15.123Z,0
2017-04-20T00:51:24.208Z,0
2017-04-20T00:52:34.367Z,0
2017-04-20T00:53:44.141Z,0
2017-04-20T00:54:53.905Z,0
2017-04-20T00:56:04.295Z,0
2017-04-20T00:57:14.025Z,0
2017-04-20T00:58:23.824Z,0
2017-04-20T00:59:33.583Z,0
2017-04-20T01:00:43.643Z,0
2017-04-20T01:01:53.686Z,0
2017-04-20T01:03:03.410Z,0
2017-04-20T01:04:13.148Z,0
2017-04-20T01:05:23.318Z,0
2017-04-20T01:06:33.036Z,0
2017-04-20T01:07:43.417Z,0
2017-04-20T01:08:53.590Z,0
2017-04-20T01:10:03.746Z,0
2017-04-20T01:11:13.962Z,0
2017-04-20T01:12:24.096Z,0
2017-04-20T01:13:34.486Z,0
2017-04-20T01:14:44.569Z,0
2017-04-20T01:15:54.747Z,0
2017-04-20T01:17:04.520Z,0
2017-04-20T01:18:14.259Z,0
2017-04-20T01:19:24.306Z,0
2017-04-20T01:20:34.417Z,0
2017-04-20T01:21:44.250Z,0
2017-04-20T01:22:53.758Z,0
2017-04-20T01:24:03.816Z,0
2017-04-20T01:25:13.178Z,0
2017-04-20T01:26:22.993Z,0
2017-04-20T01:27:32.728Z,0
2017-04-20T01:28:42.792Z,0
2017-04-20T01:29:52.856Z,0
2017-04-20T01:31:02.720Z,0
2017-04-20T01:32:12.463Z,0
2017-04-20T01:33:22.533Z,0
2017-04-20T01:34:32.301Z,0
2017-04-20T01:35:42.099Z,0
2017-04-20T01:36:52.134Z,0
2017-04-20T01:38:02.238Z,0
2017-04-20T01:39:12.386Z,0
2017-04-20T01:40:22.450Z,0
2017-04-20T01:41:32.509Z,0
2017-04-20T01:42:43.009Z,0
2017-04-20T01:43:53.084Z,0
2017-04-20T01:45:02.810Z,0
2017-04-20T01:46:12.539Z,0
2017-04-20T01:47:22.651Z,0
2017-04-20T01:48:33.022Z,0
2017-04-20T01:49:43.081Z,0
2017-04-20T01:50:52.922Z,0
2017-04-20T01:52:02.977Z,0
2017-04-20T01:53:12.782Z,0
2017-04-20T01:54:23.029Z,0
2017-04-20T01:55:33.122Z,0
2017-04-20T01:56:43.197Z,0
2017-04-20T01:57:52.939Z,0
2017-04-20T01:59:03.013Z,0
2017-04-20T02:00:13.052Z,0
2017-04-20T02:01:23.133Z,0
2017-04-20T02:02:33.545Z,0
2017-04-20T02:03:43.325Z,0
2017-04-20T02:04:53.473Z,0
2017-04-20T02:06:03.182Z,0
2017-04-20T02:07:13.244Z,0
2017-04-20T02:08:23.367Z,0
2017-04-20T02:09:33.489Z,0
2017-04-20T02:10:43.683Z,0
2017-04-20T02:11:54.097Z,0
2017-04-20T02:13:03.934Z,0
2017-04-20T02:14:13.323Z,0
2017-04-20T02:15:23.393Z,0
2017-04-20T02:16:33.121Z,0
2017-04-20T02:17:43.150Z,0
2017-04-20T02:18:53.272Z,0
2017-04-20T02:20:02.673Z,0
2017-04-20T02:21:12.407Z,0
2017-04-20T02:22:22.172Z,0
2017-04-20T02:23:31.914Z,0
2017-04-20T02:24:42.013Z,0
2017-04-20T02:25:51.797Z,0
2017-04-20T02:27:01.201Z,0
2017-04-20T02:28:11.309Z,0
2017-04-20T02:29:21.735Z,0
2017-04-20T02:30:31.849Z,0
2017-04-20T02:31:41.969Z,0
2017-04-20T02:32:51.710Z,0
2017-04-20T02:34:01.434Z,0
2017-04-20T02:35:11.603Z,0
2017-04-20T02:36:21.677Z,0
2017-04-20T02:37:31.393Z,0
2017-04-20T02:38:41.182Z,0
2017-04-20T02:39:51.549Z,0
2017-04-20T02:41:01.709Z,0
2017-04-20T02:42:43.284Z,0
2017-04-20T02:43:52.683Z,0
2017-04-20T02:45:02.484Z,0
2017-04-20T02:46:12.515Z,0
2017-04-20T02:47:22.665Z,0
2017-04-20T02:48:32.744Z,0
2017-04-20T02:49:42.810Z,0
2017-04-20T02:50:52.558Z,0
2017-04-20T02:52:02.253Z,0
2017-04-20T02:53:12.355Z,0
2017-04-20T02:54:21.750Z,0
2017-04-20T02:55:31.532Z,0
2017-04-20T02:56:41.258Z,0
2017-04-20T02:57:51.289Z,0
2017-04-20T02:59:01.194Z,0
2017-04-20T03:00:11.597Z,0
2017-04-20T03:01:21.748Z,0
2017-04-20T03:02:31.714Z,0
2017-04-20T03:03:41.759Z,0
2017-04-20T03:04:51.824Z,0
2017-04-20T03:06:01.615Z,0
2017-04-20T03:07:11.463Z,0
2017-04-20T03:08:21.205Z,0
2017-04-20T03:09:31.618Z,0
2017-04-20T03:10:41.691Z,0
2017-04-20T03:11:51.754Z,0
2017-04-20T03:13:01.496Z,0
2017-04-20T03:14:11.551Z,0
2017-04-20T03:15:21.665Z,0
2017-04-20T03:16:31.506Z,0
2017-04-20T03:17:41.579Z,0
2017-04-20T03:18:51.687Z,0
2017-04-20T03:20:01.524Z,0
2017-04-20T03:21:11.905Z,0
2017-04-20T03:22:21.961Z,0
2017-04-20T03:23:31.721Z,0
2017-04-20T03:24:41.471Z,0
2017-04-20T03:25:51.580Z,0
2017-04-20T03:27:02.019Z,0
2017-04-20T03:28:12.087Z,0
2017-04-20T03:29:22.135Z,0
2017-04-20T03:30:31.874Z,0
2017-04-20T03:31:41.999Z,4
2017-04-20T03:32:52.043Z,4
2017-04-20T03:34:02.166Z,0
2017-04-20T03:35:11.937Z,4
2017-04-20T03:36:21.677Z,4
2017-04-20T03:37:31.780Z,4
2017-04-20T03:38:42.233Z,8
2017-04-20T03:39:51.683Z,8
2017-04-20T03:41:01.453Z,8
2017-04-20T03:42:11.566Z,8
2017-04-20T03:43:21.345Z,12
2017-04-20T03:44:31.422Z,12
2017-04-20T03:45:41.561Z,16
2017-04-20T03:46:51.550Z,16
2017-04-20T03:48:01.668Z,24
2017-04-20T03:49:11.728Z,24
2017-04-20T03:50:22.196Z,32
2017-04-20T03:51:32.265Z,36
2017-04-20T03:52:42.393Z,44
2017-04-20T03:53:52.140Z,52
2017-04-20T03:55:01.964Z,60
2017-04-20T03:56:12.021Z,68
2017-04-20T03:57:21.894Z,80
2017-04-20T03:58:31.688Z,88
2017-04-20T03:59:41.774Z,104
2017-04-20T04:00:51.501Z,120
2017-04-20T04:02:01.870Z,136
2017-04-20T04:03:11.629Z,152
2017-04-20T04:04:21.746Z,172
2017-04-20T04:05:31.942Z,192
2017-04-20T04:06:42.030Z,216
2017-04-20T04:07:52.399Z,236
2017-04-20T04:09:02.142Z,264
2017-04-20T04:10:11.554Z,292
2017-04-20T04:11:21.784Z,324
2017-04-20T04:12:31.949Z,352
2017-04-20T04:13:42.389Z,388
2017-04-20T04:14:52.551Z,424
2017-04-20T04:16:02.615Z,464
2017-04-20T04:17:12.739Z,508
2017-04-20T04:18:22.922Z,544
2017-04-20T04:19:33.019Z,584
2017-04-20T04:20:42.814Z,620
2017-04-20T04:21:53.042Z,668
2017-04-20T04:23:03.213Z,708
2017-04-20T04:24:13.277Z,752
2017-04-20T04:25:22.972Z,796
2017-04-20T04:26:33.037Z,836
2017-04-20T04:27:43.096Z,884
2017-04-20T04:28:53.203Z,928
2017-04-20T04:30:02.796Z,976
2017-04-20T04:31:12.825Z,1016
2017-04-20T04:32:22.564Z,1052
2017-04-20T04:33:32.639Z,1088
2017-04-20T04:34:42.380Z,1116
2017-04-20T04:35:52.474Z,1176
2017-04-20T04:37:02.833Z,1228
2017-04-20T04:38:12.891Z,1292
2017-04-20T04:39:23.131Z,1348
2017-04-20T04:40:33.193Z,1392
2017-04-20T04:41:43.385Z,1436
2017-04-20T04:42:53.468Z,1484
2017-04-20T04:44:03.656Z,1540
2017-04-20T04:45:13.807Z,1600
2017-04-20T04:46:23.866Z,1664
2017-04-20T04:47:34.017Z,1712
2017-04-20T04:48:44.106Z,1760
2017-04-20T04:49:53.509Z,1804
2017-04-20T04:51:02.625Z,1848
2017-04-20T04:52:12.382Z,1900
2017-04-20T04:53:22.563Z,1960
2017-04-20T04:54:33.128Z,2032
2017-04-20T04:55:42.924Z,2096
2017-04-20T04:56:52.948Z,2140
2017-04-20T04:58:03.080Z,2140
2017-04-20T04:59:12.813Z,2152
2017-04-20T05:00:23.322Z,2164
2017-04-20T05:01:32.726Z,2168
2017-04-20T05:02:42.457Z,2168
2017-04-20T05:03:52.175Z,2168
2017-04-20T05:05:02.143Z,2164
2017-04-20T05:06:11.833Z,2156
2017-04-20T05:07:21.633Z,2156
2017-04-20T05:08:31.061Z,2172
2017-04-20T05:09:40.494Z,2140
2017-04-20T05:10:50.224Z,2160
2017-04-20T05:12:00.314Z,2228
2017-04-20T05:13:10.388Z,2312
2017-04-20T05:14:20.453Z,2436
2017-04-20T05:15:30.518Z,2540
2017-04-20T05:16:40.252Z,2612
2017-04-20T05:17:50.716Z,2660
2017-04-20T05:19:00.859Z,2728
2017-04-20T05:20:10.958Z,2764
2017-04-20T05:21:21.079Z,2824
2017-04-20T05:22:31.296Z,2840
2017-04-20T05:23:41.828Z,2820
2017-04-20T05:24:51.560Z,2848
2017-04-20T05:26:01.784Z,2824
2017-04-20T05:27:11.534Z,2796
2017-04-20T05:28:21.613Z,2804
2017-04-20T05:29:31.977Z,2880
2017-04-20T05:30:42.059Z,2964
2017-04-20T05:31:52.245Z,3036
2017-04-20T05:33:01.971Z,3156
2017-04-20T05:34:11.910Z,3196
2017-04-20T05:35:22.506Z,3208
2017-04-20T05:36:32.580Z,3236
2017-04-20T05:37:42.642Z,3288
2017-04-20T05:38:52.541Z,3340
2017-04-20T05:40:02.326Z,3344
2017-04-20T05:41:12.359Z,3480
2017-04-20T05:42:21.760Z,3432
2017-04-20T05:43:31.499Z,3452
2017-04-20T05:44:41.354Z,3424
2017-04-20T05:45:51.478Z,3484
2017-04-20T05:47:01.972Z,3504
2017-04-20T05:48:11.734Z,3584
2017-04-20T05:49:21.129Z,3644
2017-04-20T05:50:30.857Z,3712
2017-04-20T05:51:40.649Z,3704
2017-04-20T05:52:50.789Z,3772
2017-04-20T05:54:00.527Z,3744
2017-04-20T05:55:10.650Z,3748
2017-04-20T05:56:20.483Z,3832
2017-04-20T05:57:30.539Z,3908
2017-04-20T05:58:40.921Z,3976
2017-04-20T05:59:51.027Z,4012
2017-04-20T06:01:00.819Z,4056
2017-04-20T06:02:10.943Z,4088
2017-04-20T06:03:21.117Z,4080
2017-04-20T06:04:31.473Z,4088
2017-04-20T06:05:40.877Z,4124
2017-04-20T06:06:51.075Z,4132
2017-04-20T06:08:01.184Z,4152
2017-04-20T06:09:11.252Z,4084
2017-04-20T06:10:21.503Z,4108
2017-04-20T06:11:31.415Z,4120
2017-04-20T06:12:41.192Z,4236
2017-04-20T06:13:51.321Z,4304
2017-04-20T06:15:01.725Z,4336
2017-04-20T06:16:12.290Z,4348
2017-04-20T06:17:22.466Z,4344
2017-04-20T06:18:32.280Z,4348
2017-04-20T06:20:14.191Z,4376
2017-04-20T06:21:24.563Z,4404
2017-04-20T06:22:34.682Z,4448
2017-04-20T06:23:44.440Z,4488
2017-04-20T06:24:54.178Z,4512
2017-04-20T06:26:04.003Z,4524
2017-04-20T06:27:14.473Z,4536
2017-04-20T06:28:24.531Z,4548
2017-04-20T06:29:34.517Z,4556
2017-04-20T06:30:44.756Z,4568
2017-04-20T06:31:54.483Z,4588
2017-04-20T06:33:04.885Z,4596
2017-04-20T06:34:15.230Z,4588
2017-04-20T06:35:25.317Z,4596
2017-04-20T06:36:35.076Z,4596
2017-04-20T06:37:45.155Z,4656
2017-04-20T06:38:55.634Z,4696
2017-04-20T06:40:05.816Z,4720
2017-04-20T06:41:15.739Z,4740
2017-04-20T06:42:25.977Z,4760
2017-04-20T06:43:36.241Z,4776
2017-04-20T06:44:46.637Z,4796
2017-04-20T06:45:56.087Z,4828
2017-04-20T06:47:05.510Z,4844
2017-04-20T06:48:15.607Z,4860
2017-04-20T06:49:25.496Z,4892
2017-04-20T06:50:35.624Z,4908
2017-04-20T06:51:45.695Z,4924
2017-04-20T06:52:55.435Z,4972
2017-04-20T06:54:05.166Z,4996
2017-04-20T06:55:15.221Z,5020
2017-04-20T06:56:25.612Z,5056
2017-04-20T06:57:35.403Z,5100
2017-04-20T06:58:45.199Z,5136
2017-04-20T06:59:55.264Z,5172
2017-04-20T07:01:04.719Z,5212
2017-04-20T07:02:14.801Z,5240
2017-04-20T07:03:25.047Z,5268
2017-04-20T07:04:34.861Z,5284
2017-04-20T07:05:44.926Z,5300
2017-04-20T07:06:54.755Z,5328
2017-04-20T07:08:05.180Z,5368
2017-04-20T07:09:14.964Z,5404
2017-04-20T07:10:24.478Z,5456
2017-04-20T07:11:34.570Z,5504
2017-04-20T07:12:44.364Z,5556
2017-04-20T07:13:54.468Z,5624
2017-04-20T07:15:03.868Z,5720
2017-04-20T07:16:13.671Z,5804
2017-04-20T07:17:23.732Z,5896
2017-04-20T07:18:33.522Z,5984
2017-04-20T07:19:43.883Z,6040
2017-04-20T07:20:53.614Z,6096
2017-04-20T07:22:03.351Z,6164
2017-04-20T07:23:13.524Z,6252
2017-04-20T07:24:22.955Z,6332
2017-04-20T07:25:32.999Z,6416
2017-04-20T07:26:42.831Z,6520
2017-04-20T07:27:53.143Z,6608
2017-04-20T07:29:03.264Z,6708
2017-04-20T07:30:12.842Z,6880
2017-04-20T07:31:23.213Z,6980
2017-04-20T07:32:33.273Z,7112
2017-04-20T07:33:43.340Z,7200
2017-04-20T07:34:53.418Z,7320
2017-04-20T07:36:03.579Z,7432
2017-04-20T07:37:14.041Z,7544
2017-04-20T07:38:24.112Z,7668
2017-04-20T07:39:33.987Z,7808
2017-04-20T07:40:44.061Z,7916
2017-04-20T07:41:54.143Z,8048
2017-04-20T07:43:04.369Z,8140
2017-04-20T07:44:14.124Z,8252
2017-04-20T07:45:24.276Z,8360
2017-04-20T07:46:34.018Z,8456
2017-04-20T07:47:43.430Z,8520
2017-04-20T07:48:53.819Z,8576
2017-04-20T07:50:03.898Z,8628
2017-04-20T07:51:13.965Z,8692
2017-04-20T07:52:24.098Z,8752
2017-04-20T07:53:34.308Z,8788
2017-04-20T07:54:44.737Z,8840
2017-04-20T07:55:54.475Z,8876
2017-04-20T07:57:04.297Z,8976
2017-04-20T07:58:13.431Z,9000
2017-04-20T07:59:23.647Z,9112
2017-04-20T08:00:33.705Z,9212
2017-04-20T08:01:44.082Z,9268
2017-04-20T08:02:54.454Z,9376
2017-04-20T08:04:05.251Z,9412
2017-04-20T08:05:15.380Z,9500
2017-04-20T08:06:25.959Z,9668
2017-04-20T08:07:36.307Z,9812
2017-04-20T08:08:47.312Z,10056
2017-04-20T08:09:58.642Z,10236
2017-04-20T08:11:09.412Z,10564
2017-04-20T08:12:20.170Z,10740
2017-04-20T08:13:30.880Z,10960
2017-04-20T08:14:41.245Z,11184
2017-04-20T08:15:51.940Z,11376
2017-04-20T08:17:02.775Z,11504
2017-04-20T08:18:13.765Z,11444
2017-04-20T08:19:24.459Z,11588
2017-04-20T08:20:35.168Z,11708
2017-04-20T08:21:45.593Z,11880
2017-04-20T08:22:57.278Z,12028
2017-04-20T08:24:08.288Z,12352
2017-04-20T08:25:18.978Z,12692
2017-04-20T08:26:29.535Z,13220
2017-04-20T08:27:39.894Z,13996
2017-04-20T08:28:50.026Z,14928
2017-04-20T08:30:01.842Z,15924
2017-04-20T08:31:12.540Z,17056
2017-04-20T08:32:22.946Z,18176
2017-04-20T08:33:33.719Z,19040
2017-04-20T08:34:44.701Z,19648
2017-04-20T08:35:55.574Z,20352
2017-04-20T08:37:05.805Z,20416
2017-04-20T08:38:16.339Z,24448
2017-04-20T08:39:27.662Z,56448
2017-04-20T08:40:38.693Z,73408
2017-04-20T08:41:49.748Z,81440
2017-04-20T08:43:00.235Z,79296
2017-04-20T08:44:10.640Z,82432
2017-04-20T08:45:21.351Z,86272
2017-04-20T08:46:32.063Z,61504
2017-04-20T08:47:42.733Z,62848
2017-04-20T08:48:53.459Z,85312
2017-04-20T08:50:03.863Z,36320
2017-04-20T08:51:13.769Z,52096
2017-04-20T08:52:24.233Z,31360
2017-04-20T08:53:35.399Z,73632
2017-04-20T08:54:46.163Z,93600
2017-04-20T08:55:56.952Z,93280
2017-04-20T08:57:07.641Z,96800
2017-04-20T08:58:18.521Z,78848
2017-04-20T08:59:29.754Z,39968
2017-04-20T09:00:40.574Z,25152
2017-04-20T09:01:51.013Z,18816
2017-04-20T09:03:02.678Z,18624
2017-04-20T09:04:13.486Z,15348
2017-04-20T09:05:24.511Z,15544
2017-04-20T09:06:36.233Z,95392
2017-04-20T09:07:47.222Z,88384
2017-04-20T09:08:57.683Z,52352
2017-04-20T09:10:08.549Z,86656
2017-04-20T09:11:18.573Z,100128
2017-04-20T09:12:28.984Z,61568
2017-04-20T09:13:39.030Z,75616
2017-04-20T09:14:49.508Z,79776
2017-04-20T09:15:59.610Z,89920
2017-04-20T09:17:10.711Z,136064
2017-04-20T09:18:21.416Z,93088
2017-04-20T09:19:32.157Z,70784
2017-04-20T09:20:42.950Z,99552
2017-04-20T09:21:53.340Z,86432
2017-04-20T09:23:04.367Z,83808
2017-04-20T09:24:15.100Z,94592
2017-04-20T09:25:25.837Z,87712
2017-04-20T09:26:36.643Z,94272
2017-04-20T09:27:47.049Z,99616
2017-04-20T09:28:58.070Z,88096
2017-04-20T09:30:08.898Z,74336
2017-04-20T09:31:19.289Z,88032
2017-04-20T09:32:30.256Z,111360
2017-04-20T09:33:41.015Z,101856
2017-04-20T09:34:51.418Z,90528
2017-04-20T09:36:02.246Z,86560
2017-04-20T09:37:11.996Z,87968
2017-04-20T09:38:22.786Z,106880
2017-04-20T09:39:34.138Z,115168
2017-04-20T09:40:45.052Z,119232
2017-04-20T09:41:55.796Z,119200
2017-04-20T09:43:06.533Z,110880
2017-04-20T09:44:17.270Z,119744
2017-04-20T09:45:27.710Z,126176
2017-04-20T09:46:37.980Z,109024
2017-04-20T09:47:48.357Z,105312
2017-04-20T09:48:58.527Z,112192
2017-04-20T09:50:09.264Z,40448
2017-04-20T09:51:20.089Z,100448
2017-04-20T09:52:31.231Z,101024
2017-04-20T09:53:42.055Z,65344
2017-04-20T09:54:52.765Z,23168
2017-04-20T09:56:03.637Z,27744
2017-04-20T09:57:14.050Z,39904
2017-04-20T09:58:25.280Z,35360
2017-04-20T09:59:37.266Z,131040
2017-04-20T10:00:48.654Z,109024
2017-04-20T10:01:59.414Z,90048
2017-04-20T10:03:10.769Z,81184
2017-04-20T10:04:21.902Z,100736
2017-04-20T10:05:32.346Z,52416
2017-04-20T10:06:42.827Z,101120
2017-04-20T10:07:53.547Z,117920
2017-04-20T10:09:04.481Z,123488
2017-04-20T10:10:15.534Z,110400
2017-04-20T10:11:26.927Z,88320
2017-04-20T10:12:37.697Z,103648
2017-04-20T10:13:48.412Z,113248
2017-04-20T10:14:58.794Z,110304
2017-04-20T10:16:09.236Z,113696
2017-04-20T10:17:20.055Z,101920
2017-04-20T10:18:30.760Z,102144
2017-04-20T10:19:41.222Z,99616
2017-04-20T10:20:52.032Z,103712
2017-04-20T10:22:02.750Z,112448
2017-04-20T10:23:12.881Z,144768
2017-04-20T10:24:23.711Z,129408
2017-04-20T10:25:34.149Z,101216
2017-04-20T10:26:45.003Z,111552
2017-04-20T10:27:56.036Z,115200
2017-04-20T10:29:06.770Z,111040
2017-04-20T10:30:17.547Z,118720
2017-04-20T10:31:27.970Z,106272
2017-04-20T10:32:38.732Z,91616
2017-04-20T10:33:50.043Z,106624
2017-04-20T10:35:00.376Z,115008
2017-04-20T10:36:10.445Z,116992
2017-04-20T10:37:21.218Z,44192
2017-04-20T10:38:32.055Z,36000
2017-04-20T10:39:42.807Z,32960
2017-04-20T10:40:53.674Z,36864
2017-04-20T10:42:05.375Z,41824
2017-04-20T10:43:15.837Z,35648
2017-04-20T10:44:27.176Z,35456
2017-04-20T10:45:38.207Z,32128
2017-04-20T10:46:49.000Z,28896
2017-04-20T10:47:59.807Z,29088
2017-04-20T10:49:11.448Z,24192
2017-04-20T10:50:21.849Z,22624
2017-04-20T10:51:31.803Z,22976
2017-04-20T10:52:42.287Z,23328
2017-04-20T10:53:53.007Z,28192
2017-04-20T10:55:03.440Z,26880
2017-04-20T10:56:13.479Z,56832
2017-04-20T10:57:24.140Z,77696
2017-04-20T10:58:34.253Z,59232
2017-04-20T10:59:45.242Z,23488
2017-04-20T11:00:55.641Z,22336
2017-04-20T11:02:06.427Z,21312
2017-04-20T11:03:17.127Z,20864
2017-04-20T11:04:27.504Z,25184
2017-04-20T11:05:37.989Z,26720
2017-04-20T11:06:49.674Z,29408
2017-04-20T11:08:01.029Z,83424
2017-04-20T11:09:12.054Z,124416
2017-04-20T11:10:22.178Z,111392
2017-04-20T11:11:32.915Z,99840
2017-04-20T11:12:43.734Z,82016
2017-04-20T11:13:54.554Z,60704
2017-04-20T11:15:05.656Z,82752
2017-04-20T11:16:16.413Z,76928
2017-04-20T11:17:26.782Z,75424
2017-04-20T11:18:37.481Z,80256
2017-04-20T11:19:48.223Z,79968
2017-04-20T11:20:59.406Z,71936
2017-04-20T11:22:09.772Z,77664
2017-04-20T11:23:20.240Z,103360
2017-04-20T11:24:31.018Z,95872
2017-04-20T11:25:41.116Z,73504
2017-04-20T11:26:52.137Z,83328
2017-04-20T11:28:02.872Z,106560
2017-04-20T11:29:13.300Z,109472
2017-04-20T11:30:24.033Z,112288
2017-04-20T11:31:34.422Z,127872
2017-04-20T11:32:45.263Z,80704
2017-04-20T11:33:55.748Z,118368
2017-04-20T11:35:06.471Z,83328
2017-04-20T11:36:18.197Z,84544
2017-04-20T11:37:29.108Z,95296
2017-04-20T11:38:39.804Z,75872
2017-04-20T11:39:50.647Z,62688
2017-04-20T11:41:01.098Z,28128
2017-04-20T11:42:12.077Z,27200
2017-04-20T11:43:21.793Z,33312
2017-04-20T11:44:32.508Z,81824
2017-04-20T11:45:42.868Z,29312
2017-04-20T11:46:53.657Z,37664
2017-04-20T11:48:05.316Z,100832
2017-04-20T11:49:16.026Z,80960
2017-04-20T11:50:27.014Z,46688
2017-04-20T11:51:37.750Z,111168
2017-04-20T11:52:48.103Z,54208
2017-04-20T11:53:58.798Z,37408
2017-04-20T11:55:09.228Z,57696
2017-04-20T11:56:20.277Z,37248
2017-04-20T11:57:30.973Z,32480
2017-04-20T11:58:41.711Z,40288
2017-04-20T11:59:52.453Z,25536
2017-04-20T12:01:02.603Z,24992
2017-04-20T12:02:14.552Z,31104
2017-04-20T12:03:25.324Z,29152
2017-04-20T12:04:36.204Z,26560
2017-04-20T12:05:46.881Z,22496
2017-04-20T12:06:57.247Z,22432
2017-04-20T12:08:09.248Z,23072
2017-04-20T12:09:19.364Z,24704
2017-04-20T12:10:30.072Z,39456
2017-04-20T12:11:39.762Z,27456
2017-04-20T12:12:50.208Z,21408
2017-04-20T12:14:00.590Z,20224
2017-04-20T12:15:11.168Z,20416
2017-04-20T12:16:21.573Z,21856
2017-04-20T12:17:32.392Z,119904
2017-04-20T12:18:42.491Z,102624
2017-04-20T12:19:53.710Z,59904
2017-04-20T12:21:04.121Z,57792
2017-04-20T12:22:14.483Z,104640
2017-04-20T12:23:25.232Z,132192
2017-04-20T12:24:35.624Z,121984
2017-04-20T12:25:46.280Z,110016
2017-04-20T12:26:57.035Z,97536
2017-04-20T12:28:07.084Z,91904
2017-04-20T12:29:17.892Z,30912
2017-04-20T12:30:28.309Z,36640
2017-04-20T12:31:38.992Z,25760
2017-04-20T12:32:49.683Z,115936
2017-04-20T12:34:00.106Z,111808
2017-04-20T12:35:10.493Z,98912
2017-04-20T12:36:21.314Z,93632
2017-04-20T12:37:32.016Z,95168
2017-04-20T12:38:42.815Z,79776
2017-04-20T12:39:53.191Z,59552
2017-04-20T12:41:03.921Z,87776
2017-04-20T12:42:13.960Z,30176
2017-04-20T12:43:25.094Z,24416
2017-04-20T12:44:35.933Z,23200
2017-04-20T12:45:46.628Z,22816
2017-04-20T12:46:56.989Z,23200
2017-04-20T12:48:07.748Z,25504
2017-04-20T12:49:18.728Z,33600
2017-04-20T12:50:29.468Z,94464
2017-04-20T12:51:40.187Z,103232
2017-04-20T12:52:50.939Z,105824
2017-04-20T12:54:01.415Z,97152
2017-04-20T12:55:13.054Z,91584
2017-04-20T12:56:23.819Z,78272
2017-04-20T12:57:34.589Z,84480
2017-04-20T12:58:45.334Z,36512
2017-04-20T12:59:56.079Z,37152
2017-04-20T13:01:07.175Z,56448
2017-04-20T13:02:17.582Z,73600
2017-04-20T13:03:28.371Z,68704
2017-04-20T13:04:39.152Z,79008
2017-04-20T13:05:49.975Z,55456
2017-04-20T13:07:00.794Z,105504
2017-04-20T13:08:11.713Z,92416
2017-04-20T13:09:22.753Z,79648
2017-04-20T13:10:33.209Z,92128
2017-04-20T13:11:43.635Z,96672
2017-04-20T13:12:54.743Z,73792
2017-04-20T13:14:05.577Z,61568
2017-04-20T13:15:16.402Z,78240
2017-04-20T13:16:27.181Z,90592
2017-04-20T13:17:38.500Z,84000
2017-04-20T13:18:49.209Z,80992
2017-04-20T13:19:59.899Z,83008
2017-04-20T13:21:10.873Z,93440
2017-04-20T13:22:21.927Z,94592
2017-04-20T13:23:32.645Z,76736
2017-04-20T13:24:43.654Z,77056
2017-04-20T13:25:55.000Z,83648
2017-04-20T13:27:05.701Z,78848
2017-04-20T13:28:15.736Z,78656
2017-04-20T13:29:26.492Z,85760
2017-04-20T13:30:37.149Z,90976
2017-04-20T13:31:48.826Z,85920
2017-04-20T13:32:59.195Z,89184
2017-04-20T13:34:09.893Z,103200
2017-04-20T13:35:20.282Z,90560
2017-04-20T13:36:31.325Z,68288
2017-04-20T13:37:42.039Z,70528
2017-04-20T13:38:52.824Z,87136
2017-04-20T13:40:02.567Z,87488
2017-04-20T13:41:13.096Z,70944
2017-04-20T13:42:23.479Z,62752
2017-04-20T13:43:33.573Z,39520
2017-04-20T13:44:43.482Z,56960
2017-04-20T13:45:53.623Z,58752
2017-04-20T13:47:03.802Z,52320
2017-04-20T13:48:13.885Z,77568
2017-04-20T13:49:23.751Z,82048
2017-04-20T13:50:33.618Z,70016
2017-04-20T13:51:43.349Z,62368
2017-04-20T13:52:53.419Z,61120
2017-04-20T13:54:03.469Z,73568
2017-04-20T13:55:13.550Z,84576
2017-04-20T13:56:23.683Z,46400
2017-04-20T13:57:33.672Z,41312
2017-04-20T13:58:43.873Z,38624
2017-04-20T13:59:53.941Z,64928
2017-04-20T14:01:04.244Z,79744
2017-04-20T14:02:14.400Z,75488
2017-04-20T14:03:24.556Z,23264
2017-04-20T14:04:34.664Z,19360
2017-04-20T14:05:44.734Z,19136
2017-04-20T14:06:54.839Z,21024
2017-04-20T14:08:04.953Z,38912
2017-04-20T14:09:14.714Z,39808
2017-04-20T14:10:24.486Z,60704
2017-04-20T14:11:34.641Z,70304
2017-04-20T14:12:44.405Z,72320
2017-04-20T14:13:54.594Z,65888
2017-04-20T14:15:04.704Z,68640
2017-04-20T14:16:13.803Z,62432
2017-04-20T14:17:24.189Z,51584
2017-04-20T14:18:34.300Z,64192
2017-04-20T14:19:44.073Z,77312
2017-04-20T14:20:54.334Z,54720
2017-04-20T14:22:04.102Z,44544
2017-04-20T14:23:14.552Z,62432
2017-04-20T14:24:24.372Z,62784
2017-04-20T14:25:34.514Z,56416
2017-04-20T14:26:44.615Z,60832
2017-04-20T14:27:54.748Z,71264
2017-04-20T14:29:05.155Z,74752
2017-04-20T14:30:15.244Z,65888
2017-04-20T14:31:24.790Z,56032
2017-04-20T14:32:34.901Z,62208
2017-04-20T14:33:44.709Z,61632
2017-04-20T14:34:55.272Z,49568
2017-04-20T14:36:05.403Z,49664
2017-04-20T14:37:15.163Z,51904
2017-04-20T14:38:25.268Z,15376
2017-04-20T14:39:35.389Z,15824
2017-04-20T14:40:45.118Z,27840
2017-04-20T14:41:55.262Z,53888
2017-04-20T14:43:05.465Z,51360
2017-04-20T14:44:15.275Z,53728
2017-04-20T14:45:25.426Z,54176
2017-04-20T14:46:35.990Z,57248
2017-04-20T14:47:46.164Z,68448
2017-04-20T14:48:56.315Z,67744
2017-04-20T14:50:05.750Z,62496
2017-04-20T14:51:15.934Z,52864
2017-04-20T14:52:26.366Z,50368
2017-04-20T14:53:36.474Z,52192
2017-04-20T14:54:46.573Z,48128
2017-04-20T14:55:56.728Z,47232
2017-04-20T14:57:06.836Z,47456
2017-04-20T14:58:16.902Z,44704
2017-04-20T14:59:27.046Z,44256
2017-04-20T15:00:37.142Z,51520
2017-04-20T15:01:46.927Z,58752
2017-04-20T15:02:56.776Z,51232
2017-04-20T15:04:06.841Z,47456
2017-04-20T15:05:16.934Z,50208
2017-04-20T15:06:27.080Z,48800
2017-04-20T15:07:36.964Z,11236
2017-04-20T15:08:46.763Z,10620
2017-04-20T15:09:56.823Z,54144
2017-04-20T15:11:06.720Z,56704
2017-04-20T15:12:16.943Z,52672
2017-04-20T15:13:26.365Z,56832
2017-04-20T15:14:36.535Z,60992
2017-04-20T15:15:46.696Z,52832
2017-04-20T15:16:56.904Z,49376
2017-04-20T15:18:06.995Z,48928
2017-04-20T15:19:16.758Z,43008
2017-04-20T15:20:26.916Z,50656
2017-04-20T15:21:36.976Z,56352
2017-04-20T15:22:47.066Z,48448
2017-04-20T15:23:57.154Z,48320
2017-04-20T15:25:07.299Z,53568
2017-04-20T15:26:17.448Z,50240
2017-04-20T15:27:27.864Z,38752
2017-04-20T15:28:37.951Z,41632
2017-04-20T15:29:48.068Z,40992
2017-04-20T15:30:57.925Z,38432
2017-04-20T15:32:08.139Z,33312
2017-04-20T15:33:18.536Z,34144
2017-04-20T15:34:27.981Z,44384
2017-04-20T15:35:38.076Z,42848
2017-04-20T15:36:47.847Z,34752
2017-04-20T15:37:57.293Z,28640
2017-04-20T15:39:07.810Z,15872
2017-04-20T15:40:17.935Z,12568
2017-04-20T15:41:28.151Z,12016
2017-04-20T15:42:38.349Z,11636